^^
Station Historical Data
Daily Summary for September 13, 2017 Units:  Metric    English   Both
« Previous Day
Next Day »
Daily Weekly Monthly Yearly Custom
  High: Low: Average:
Temperature: 24.3 °C 10.5 °C 15.1 °C
Dew Point: 7.6 °C 4.1 °C 6.7 °C
Humidity: 78% 30% 59%
Wind Speed: 32km/h 7.9km/h 16.4km/h
Wind Gust: 37km/h - -
Wind- - SW
Pressure: 1016.8 hPa 1009.7 hPa -
Precipitation: 0 mm    
Historical Graphs
 
 
Tabular Data for September 13, 2017
Time Temperature Dew Point Pressure Wind Wind Speed Wind Gust Humidity Rainfall Rate (Hourly) solar Conditions
00:05 16 °C 6.4 °C 1010.4 hPa SW 11.1 km/h 14.5 km/h 53% 0 mm 0.0 W/m2
00:10 15.9 °C 6.3 °C 1010.4 hPa SW 16.3 km/h 19.3 km/h 53% 0 mm 0.0 W/m2
00:20 15.7 °C 6.4 °C 1010.4 hPa SW 13 km/h 16.1 km/h 54% 0 mm 0.0 W/m2
00:25 15.7 °C 6.7 °C 1010.4 hPa SW 20.9 km/h 20.9 km/h 55% 0 mm 0.0 W/m2
00:30 15.6 °C 6.6 °C 1010.4 hPa SW 17.7 km/h 19.3 km/h 55% 0 mm 0.0 W/m2
00:35 15.5 °C 6.8 °C 1010.4 hPa SW 20.9 km/h 20.9 km/h 56% 0 mm 0.0 W/m2
00:45 15.3 °C 6.6 °C 1010 hPa SW 14.3 km/h 20.9 km/h 56% 0 mm 0.0 W/m2
00:50 15.3 °C 6.8 °C 1010 hPa SW 13 km/h 22.5 km/h 57% 0 mm 0.0 W/m2
00:55 15.2 °C 6.7 °C 1010 hPa SW 14.3 km/h 19.3 km/h 57% 0 mm 0.0 W/m2
01:00 15.1 °C 6.6 °C 1010 hPa SW 16.3 km/h 19.3 km/h 57% 0 mm 0.0 W/m2
01:10 15.1 °C 6.6 °C 1010 hPa SW 11.1 km/h 19.3 km/h 57% 0 mm 0.0 W/m2
01:15 15 °C 6.5 °C 1010 hPa SW 14.3 km/h 14.5 km/h 57% 0 mm 0.0 W/m2
01:25 14.9 °C 6.7 °C 1010 hPa SW 9.7 km/h 14.5 km/h 58% 0 mm 0.0 W/m2
01:30 14.8 °C 6.6 °C 1010 hPa SW 9.7 km/h 14.5 km/h 58% 0 mm 0.0 W/m2
01:35 14.7 °C 6.8 °C 1010 hPa SW 7.9 km/h 11.3 km/h 59% 0 mm 0.0 W/m2
01:40 14.7 °C 6.5 °C 1010.4 hPa SW 7.9 km/h 11.3 km/h 58% 0 mm 0.0 W/m2
01:51 14.6 °C 6.7 °C 1010 hPa SW 11.1 km/h 11.3 km/h 59% 0 mm 0.0 W/m2
02:01 14.4 °C 6.5 °C 1010 hPa SW 13 km/h 14.5 km/h 59% 0 mm 0.0 W/m2
02:06 14.3 °C 6.4 °C 1010 hPa SW 9.7 km/h 14.5 km/h 59% 0 mm 0.0 W/m2
02:11 14.3 °C 6.6 °C 1010 hPa SW 16.3 km/h 16.3 km/h 60% 0 mm 0.0 W/m2
02:16 14.2 °C 6.5 °C 1010 hPa SW 11.1 km/h 16.1 km/h 60% 0 mm 0.0 W/m2
02:26 14.1 °C 6.5 °C 1010 hPa SW 13 km/h 16.1 km/h 60% 0 mm 0.0 W/m2
02:36 13.9 °C 6.5 °C 1010 hPa SW 14.3 km/h 16.1 km/h 61% 0 mm 0.0 W/m2
02:41 13.9 °C 6.5 °C 1010 hPa SW 14.3 km/h 17.7 km/h 61% 0 mm 0.0 W/m2
02:46 13.8 °C 6.6 °C 1010 hPa SW 13 km/h 17.7 km/h 62% 0 mm 0.0 W/m2
02:51 13.7 °C 6.8 °C 1010 hPa SW 17.7 km/h 17.7 km/h 63% 0 mm 0.0 W/m2
03:01 13.6 °C 6.7 °C 1010 hPa SW 11.1 km/h 14.5 km/h 63% 0 mm 0.0 W/m2
03:06 13.6 °C 6.7 °C 1010 hPa SW 13 km/h 17.7 km/h 63% 0 mm 0.0 W/m2
03:12 13.5 °C 6.8 °C 1010 hPa SW 17.7 km/h 19.3 km/h 64% 0 mm 0.0 W/m2
03:17 13.4 °C 6.7 °C 1010 hPa SW 16.3 km/h 17.7 km/h 64% 0 mm 0.0 W/m2
03:26 13.3 °C 6.9 °C 1010 hPa SW 16.3 km/h 17.7 km/h 65% 0 mm 0.0 W/m2
03:31 13.2 °C 7 °C 1009.7 hPa SW 13 km/h 17.7 km/h 66% 0 mm 0.0 W/m2
03:37 13.2 °C 7 °C 1010 hPa SW 16.3 km/h 16.3 km/h 66% 0 mm 0.0 W/m2
03:43 13.1 °C 6.9 °C 1010 hPa SW 9.7 km/h 16.1 km/h 66% 0 mm 0.0 W/m2
03:48 13 °C 7 °C 1010 hPa SW 16.3 km/h 17.7 km/h 67% 0 mm 0.0 W/m2
03:57 12.8 °C 7 °C 1009.7 hPa SW 7.9 km/h 14.5 km/h 68% 0 mm 0.0 W/m2
04:02 12.7 °C 6.9 °C 1009.7 hPa SW 7.9 km/h 12.9 km/h 68% 0 mm 0.0 W/m2
04:07 12.6 °C 7.1 °C 1009.7 hPa SW 7.9 km/h 12.9 km/h 69% 0 mm 0.0 W/m2
04:12 12.5 °C 7 °C 1009.7 hPa SW 7.9 km/h 11.3 km/h 69% 0 mm 0.0 W/m2
04:17 12.4 °C 7.1 °C 1010 hPa SW 11.1 km/h 14.5 km/h 70% 0 mm 0.0 W/m2
04:22 12.4 °C 7.1 °C 1009.7 hPa SW 13 km/h 14.5 km/h 70% 0 mm 0.0 W/m2
04:27 12.3 °C 7 °C 1009.7 hPa SW 9.7 km/h 16.1 km/h 70% 0 mm 0.0 W/m2
04:32 12.2 °C 7.1 °C 1009.7 hPa SW 11.1 km/h 14.5 km/h 71% 0 mm 0.0 W/m2
04:37 12.2 °C 7.1 °C 1010 hPa SW 11.1 km/h 16.1 km/h 71% 0 mm 0.0 W/m2
04:42 12.1 °C 7.2 °C 1010 hPa SW 14.3 km/h 14.5 km/h 72% 0 mm 0.0 W/m2
04:47 12.1 °C 7.2 °C 1010 hPa SW 11.1 km/h 16.1 km/h 72% 0 mm 0.0 W/m2
04:57 11.9 °C 7.2 °C 1010 hPa SW 17.7 km/h 17.7 km/h 73% 0 mm 0.0 W/m2
05:07 11.9 °C 7.2 °C 1010 hPa SW 9.7 km/h 16.1 km/h 73% 0 mm 0.0 W/m2
05:17 11.7 °C 7.4 °C 1010 hPa SW 13 km/h 20.9 km/h 75% 0 mm 0.0 W/m2
05:32 11.6 °C 7.3 °C 1010.4 hPa SW 14.3 km/h 20.9 km/h 75% 0 mm 0.0 W/m2
05:38 11.5 °C 7.4 °C 1010.7 hPa SW 16.3 km/h 20.9 km/h 76% 0 mm 0.0 W/m2
05:43 11.4 °C 7.1 °C 1010.7 hPa SW 17.7 km/h 24.1 km/h 75% 0 mm 0.0 W/m2
05:48 11.3 °C 7 °C 1010.7 hPa SW 17.7 km/h 22.5 km/h 75% 0 mm 0.0 W/m2
05:58 11.2 °C 6.9 °C 1010.7 hPa SW 14.3 km/h 25.7 km/h 75% 0 mm 0.0 W/m2
06:03 11.1 °C 6.8 °C 1010.7 hPa SW 20.9 km/h 22.5 km/h 75% 0 mm 0.0 W/m2
06:08 11 °C 6.9 °C 1011.1 hPa SW 19.5 km/h 24.1 km/h 76% 0 mm 0.0 W/m2
06:13 10.9 °C 6.8 °C 1011.1 hPa SW 14.3 km/h 17.7 km/h 76% 0 mm 0.0 W/m2
06:23 10.8 °C 6.9 °C 1011.1 hPa SW 16.3 km/h 17.7 km/h 77% 0 mm 0.0 W/m2
06:28 10.8 °C 6.9 °C 1011.4 hPa SW 11.1 km/h 19.3 km/h 77% 0 mm 0.0 W/m2
06:33 10.7 °C 6.8 °C 1011.4 hPa SW 14.3 km/h 17.7 km/h 77% 0 mm 0.0 W/m2
06:43 10.6 °C 6.9 °C 1011.7 hPa SW 13 km/h 20.9 km/h 78% 0 mm 0.0 W/m2
06:55 10.6 °C 6.9 °C 1011.7 hPa SW 9.7 km/h 16.1 km/h 78% 0 mm 7.0 W/m2
07:03 10.6 °C 6.9 °C 1011.7 hPa SW 13 km/h 19.3 km/h 78% 0 mm 16.0 W/m2
07:08 10.5 °C 6.8 °C 1012.1 hPa SW 13 km/h 16.1 km/h 78% 0 mm 21.0 W/m2
07:18 10.5 °C 6.8 °C 1011.7 hPa SW 13 km/h 17.7 km/h 78% 0 mm 28.0 W/m2
07:30 10.6 °C 6.9 °C 1012.1 hPa SW 13 km/h 19.3 km/h 78% 0 mm 51.0 W/m2
07:43 10.8 °C 6.9 °C 1012.4 hPa SW 14.3 km/h 20.9 km/h 77% 0 mm 88.0 W/m2
07:49 11.1 °C 7 °C 1012.4 hPa SW 14.3 km/h 17.7 km/h 76% 0 mm 118.0 W/m2
07:53 11.1 °C 7 °C 1012.4 hPa SW 14.3 km/h 17.7 km/h 76% 0 mm 118.0 W/m2
07:59 11.3 °C 7 °C 1012.4 hPa SW 13 km/h 20.9 km/h 75% 0 mm 155.0 W/m2
08:19 11.7 °C 7 °C 1012.4 hPa SW 14.3 km/h 22.5 km/h 73% 0 mm 204.0 W/m2
08:29 12.1 °C 7.2 °C 1012.8 hPa SW 13 km/h 20.9 km/h 72% 0 mm 243.0 W/m2
08:36 12.1 °C 7.2 °C 1012.8 hPa SW 13 km/h 20.9 km/h 72% 0 mm 243.0 W/m2
08:50 12.6 °C 7.3 °C 1012.8 hPa SW 17.7 km/h 20.9 km/h 70% 0 mm 313.0 W/m2
08:59 12.9 °C 7.1 °C 1012.8 hPa SW 19.5 km/h 22.5 km/h 68% 0 mm 353.0 W/m2
09:15 13 °C 7.2 °C 1013.1 hPa SW 16.3 km/h 22.5 km/h 68% 0 mm 383.0 W/m2
09:26 13.3 °C 7.3 °C 1013.1 hPa SW 17.7 km/h 20.9 km/h 67% 0 mm 429.0 W/m2
09:31 13.3 °C 7.1 °C 1013.1 hPa SW 17.7 km/h 20.9 km/h 66% 0 mm 445.0 W/m2
09:34 13.6 °C 7.4 °C 1013.1 hPa SW 20.9 km/h 22.5 km/h 66% 0 mm 462.0 W/m2
09:44 14 °C 7.3 °C 1013.1 hPa SW 16.3 km/h 19.3 km/h 64% 0 mm 487.0 W/m2
10:03 14.6 °C 7.4 °C 1012.8 hPa SW 17.7 km/h 20.9 km/h 62% 0 mm 519.0 W/m2
10:14 14.9 °C 7.4 °C 1012.8 hPa SW 14.3 km/h 17.7 km/h 61% 0 mm 561.0 W/m2
10:26 15.2 °C 7.2 °C 1012.8 hPa SW 19.5 km/h 20.9 km/h 59% 0 mm 578.0 W/m2
10:35 15.9 °C 7.6 °C 1012.8 hPa SW 19.5 km/h 19.5 km/h 58% 0 mm 603.0 W/m2
10:48 16.4 °C 7.3 °C 1012.4 hPa SW 13 km/h 16.1 km/h 55% 0 mm 638.0 W/m2
10:55 17 °C 7.3 °C 1012.8 hPa SW 11.1 km/h 20.9 km/h 53% 0 mm 663.0 W/m2
11:10 17.6 °C 7.3 °C 1012.8 hPa SW 17.7 km/h 20.9 km/h 51% 0 mm 606.0 W/m2
11:26 18 °C 7.1 °C 1012.4 hPa SW 13 km/h 20.9 km/h 49% 0 mm 719.0 W/m2
11:46 18.6 °C 7.4 °C 1012.4 hPa SSW 20.9 km/h 20.9 km/h 48% 0 mm 726.0 W/m2
11:56 19.2 °C 7.3 °C 1012.4 hPa SW 19.5 km/h 24.1 km/h 46% 0 mm 747.0 W/m2
12:11 19.7 °C 7.1 °C 1012.1 hPa SW 19.5 km/h 24.1 km/h 44% 0 mm 740.0 W/m2
12:34 20.1 °C 7.1 °C 1012.1 hPa SW 20.9 km/h 25.7 km/h 43% 0 mm 758.0 W/m2
12:54 20.5 °C 7.1 °C 1012.1 hPa SSW 25.9 km/h 25.9 km/h 42% 0 mm 766.0 W/m2
13:06 21.2 °C 7.1 °C 1011.7 hPa SW 22.7 km/h 24.1 km/h 40% 0 mm 765.0 W/m2
13:26 22 °C 6.6 °C 1011.4 hPa SW 20.9 km/h 30.6 km/h 37% 0 mm 705.0 W/m2
13:51 22.9 °C 6.6 °C 1011.4 hPa SSW 22.7 km/h 30.6 km/h 35% 0 mm 693.0 W/m2
14:16 23.5 °C 5.9 °C 1011.1 hPa SSW 16.3 km/h 32.2 km/h 32% 0 mm 682.0 W/m2
14:41 24 °C 5.4 °C 1010.7 hPa SSW 22.7 km/h 29 km/h 30% 0 mm 642.0 W/m2
15:11 24.3 °C 5.6 °C 1010.7 hPa SSW 25.9 km/h 35.4 km/h 30% 0 mm 573.0 W/m2
15:42 24.3 °C 5.6 °C 1011.1 hPa South 22.7 km/h 33.8 km/h 30% 0 mm 466.0 W/m2
16:17 23.7 °C 5.6 °C 1011.4 hPa South 24.1 km/h 35.4 km/h 31% 0 mm 380.0 W/m2
16:52 23.3 °C 4.7 °C 1011.4 hPa South 20.9 km/h 33.8 km/h 30% 0 mm 292.0 W/m2
17:19 22.8 °C 4.3 °C 1011.7 hPa SSW 20.9 km/h 29 km/h 30% 0 mm 232.0 W/m2
17:27 22.6 °C 4.1 °C 1012.1 hPa South 19.5 km/h 29 km/h 30% 0 mm 165.0 W/m2
17:42 22.1 °C 4.2 °C 1012.1 hPa SSW 25.9 km/h 37 km/h 31% 0 mm 84.0 W/m2
17:57 21.6 °C 4.2 °C 1012.4 hPa South 27.4 km/h 32.2 km/h 32% 0 mm 65.0 W/m2
18:12 21.2 °C 4.3 °C 1012.8 hPa South 17.7 km/h 32.2 km/h 33% 0 mm 33.0 W/m2
18:27 20.6 °C 4.6 °C 1013.1 hPa SSW 19.5 km/h 30.6 km/h 35% 0 mm 11.0 W/m2
18:35 20.6 °C 4.6 °C 1013.1 hPa SSW 19.5 km/h 30.6 km/h 35% 0 mm 11.0 W/m2
18:47 20 °C 5.2 °C 1013.4 hPa South 25.9 km/h 30.6 km/h 38% 0 mm 0.0 W/m2
19:07 19.5 °C 5.5 °C 1013.8 hPa South 20.9 km/h 30.6 km/h 40% 0 mm 0.0 W/m2
19:33 18.2 °C 6.4 °C 1014.1 hPa SSW 19.5 km/h 22.5 km/h 46% 0 mm 0.0 W/m2
20:03 17.5 °C 7 °C 1014.8 hPa SSW 20.9 km/h 29 km/h 50% 0 mm 0.0 W/m2
20:28 16.8 °C 7.4 °C 1015.1 hPa South 27.4 km/h 30.6 km/h 54% 0 mm 0.0 W/m2
20:48 16.4 °C 7.6 °C 1015.5 hPa South 16.3 km/h 30.6 km/h 56% 0 mm 0.0 W/m2
21:08 16.1 °C 7.1 °C 1015.8 hPa SSW 27.4 km/h 32.2 km/h 55% 0 mm 0.0 W/m2
21:13 15.8 °C 7 °C 1016.1 hPa SSW 19.5 km/h 30.6 km/h 56% 0 mm 0.0 W/m2
21:34 15.4 °C 6.9 °C 1016.1 hPa SSW 25.9 km/h 30.6 km/h 57% 0 mm 0.0 W/m2
21:47 15.1 °C 6.9 °C 1016.1 hPa South 32 km/h 33.8 km/h 58% 0 mm 0.0 W/m2
21:58 14.9 °C 6.7 °C 1016.1 hPa SSW 19.5 km/h 29 km/h 58% 0 mm 0.0 W/m2
22:08 14.8 °C 6.9 °C 1016.1 hPa South 25.9 km/h 33.8 km/h 59% 0 mm 0.0 W/m2
22:18 14.7 °C 6.8 °C 1016.5 hPa South 28.8 km/h 33.8 km/h 59% 0 mm 0.0 W/m2
22:27 14.5 °C 6.6 °C 1016.8 hPa South 22.7 km/h 30.6 km/h 59% 0 mm 0.0 W/m2
22:34 14.2 °C 6.8 °C 1016.5 hPa SSW 17.7 km/h 20.9 km/h 61% 0 mm 0.0 W/m2
Canyon Roadhouse, Fishriver Canyon, Namibia
Compliments of Weather Underground - 2.25 mb